createdAt,value
2023-01-07T00:01:38.826Z,99872.31
2023-01-07T00:04:08.771Z,99873.38
2023-01-07T00:06:40.074Z,99872.59
2023-01-07T00:09:13.770Z,99872.59
2023-01-07T00:11:42.128Z,99877.69
2023-01-07T00:14:12.959Z,99874.22
2023-01-07T00:16:41.121Z,99878.47
2023-01-07T00:19:12.933Z,99876.41
2023-01-07T00:21:40.414Z,99876.12
2023-01-07T00:24:12.560Z,99885.69
2023-01-07T00:26:42.732Z,99891.72
2023-01-07T00:29:13.379Z,99890.84
2023-01-07T00:31:40.998Z,99891.09
2023-01-07T00:34:09.519Z,99895.75
2023-01-07T00:36:43.556Z,99898.28
2023-01-07T00:39:21.871Z,99901.06
2023-01-07T00:42:09.421Z,99900.34
2023-01-07T00:44:39.387Z,99894.19
2023-01-07T00:47:08.099Z,99899.09
2023-01-07T00:49:35.419Z,99896.97
2023-01-07T00:52:06.983Z,99891.06
2023-01-07T00:54:34.554Z,99895.56
2023-01-07T00:57:04.616Z,99900.03
2023-01-07T00:59:31.928Z,99903.69
2023-01-07T01:02:00.371Z,99908.09
2023-01-07T01:04:29.907Z,99909.84
2023-01-07T01:06:58.804Z,99907.25
2023-01-07T01:09:26.682Z,99907.25
2023-01-07T01:11:54.056Z,99909.84
2023-01-07T01:14:21.281Z,99899.47
2023-01-07T01:16:49.288Z,99907.38
2023-01-07T01:19:16.523Z,99901.34
2023-01-07T01:21:43.864Z,99897.88
2023-01-07T01:24:12.707Z,99896.22
2023-01-07T01:26:40.644Z,99898.91
2023-01-07T01:29:07.828Z,99900.75
2023-01-07T01:31:35.423Z,99896.41
2023-01-07T01:34:02.624Z,99903.31
2023-01-07T01:36:29.952Z,99896.41
2023-01-07T01:38:59.014Z,99895.47
2023-01-07T01:41:27.079Z,99887.72
2023-01-07T01:43:55.089Z,99883.47
2023-01-07T01:46:43.597Z,99883.47
2023-01-07T01:49:27.950Z,99871.19
2023-01-07T01:52:03.873Z,99877.13
2023-01-07T01:54:32.738Z,99878.75
2023-01-07T01:57:05.050Z,99868.69
2023-01-07T01:59:36.719Z,99855.38
2023-01-07T02:02:06.325Z,99854.41
2023-01-07T02:04:35.718Z,99854.41
2023-01-07T02:07:16.767Z,99859.62
2023-01-07T02:09:46.154Z,99854.66
2023-01-07T02:12:34.628Z,99861.28
2023-01-07T02:15:11.162Z,99868.72
2023-01-07T02:18:14.090Z,99868.94
2023-01-07T02:20:56.584Z,99863.91
2023-01-07T02:24:13.280Z,99861.44
2023-01-07T02:26:55.759Z,99866.75
2023-01-07T02:30:02.315Z,99864.13
2023-01-07T02:32:36.060Z,99854.94
2023-01-07T02:35:36.468Z,99861.25
2023-01-07T02:38:31.886Z,99857.13
2023-01-07T02:41:18.680Z,99859.88
2023-01-07T02:43:52.747Z,99861.84
2023-01-07T02:46:30.775Z,99866.25
2023-01-07T02:49:05.161Z,99859.50
2023-01-07T02:51:39.537Z,99861.09
2023-01-07T02:54:29.029Z,99862.16
2023-01-07T02:57:23.764Z,99854.44
2023-01-07T03:00:09.933Z,99855.47
2023-01-07T03:03:02.892Z,99848.59
2023-01-07T03:05:46.049Z,99849.59
2023-01-07T03:08:35.372Z,99843.56
2023-01-07T03:11:05.510Z,99848.84
2023-01-07T03:14:00.988Z,99844.56
2023-01-07T03:16:39.022Z,99839.38
2023-01-07T03:19:11.235Z,99838.56
2023-01-07T03:21:39.583Z,99835.97
2023-01-07T03:24:09.069Z,99833.41
2023-01-07T03:26:45.729Z,99832.59
2023-01-07T03:29:17.466Z,99832.59
2023-01-07T03:32:11.129Z,99830.00
2023-01-07T03:34:40.866Z,99830.75
2023-01-07T03:37:13.291Z,99825.44
2023-01-07T03:39:45.248Z,99824.47
2023-01-07T03:42:33.895Z,99826.19
2023-01-07T03:45:04.437Z,99826.09
2023-01-07T03:47:35.133Z,99825.19
2023-01-07T03:50:02.987Z,99819.91
2023-01-07T03:52:30.271Z,99828.50
2023-01-07T03:54:57.836Z,99826.81
2023-01-07T03:57:28.374Z,99829.38
2023-01-07T03:59:56.312Z,99821.59
2023-01-07T04:02:26.910Z,99823.25
2023-01-07T04:04:54.589Z,99819.72
2023-01-07T04:07:22.001Z,99819.78
2023-01-07T04:09:50.517Z,99824.97
2023-01-07T04:12:18.740Z,99817.97
2023-01-07T04:14:46.941Z,99812.78
2023-01-07T04:17:14.286Z,99828.50
2023-01-07T04:19:42.137Z,99833.69
2023-01-07T04:22:12.103Z,99826.72
2023-01-07T04:24:40.794Z,99825.91
2023-01-07T04:27:10.332Z,99829.38
2023-01-07T04:29:37.974Z,99828.47
2023-01-07T04:32:05.395Z,99827.59
2023-01-07T04:34:33.944Z,99827.63
2023-01-07T04:37:03.971Z,99826.75
2023-01-07T04:39:32.204Z,99828.41
2023-01-07T04:41:59.843Z,99829.31
2023-01-07T04:44:28.127Z,99835.19
2023-01-07T04:46:57.903Z,99829.84
2023-01-07T04:49:25.785Z,99830.78
2023-01-07T04:51:53.417Z,99828.22
2023-01-07T04:54:24.083Z,99826.56
2023-01-07T04:56:53.535Z,99827.47
2023-01-07T04:59:21.143Z,99825.72
2023-01-07T05:01:48.556Z,99827.50
2023-01-07T05:04:16.169Z,99837.03
2023-01-07T05:06:44.196Z,99830.94
2023-01-07T05:09:12.104Z,99835.28
2023-01-07T05:11:41.474Z,99831.00
2023-01-07T05:14:11.306Z,99832.75
2023-01-07T05:16:39.806Z,99837.09
2023-01-07T05:19:14.105Z,99833.69
2023-01-07T05:21:42.174Z,99839.75
2023-01-07T05:24:11.193Z,99846.63
2023-01-07T05:26:39.908Z,99846.69
2023-01-07T05:29:08.369Z,99846.03
2023-01-07T05:31:36.059Z,99841.84
2023-01-07T05:34:04.248Z,99836.88
2023-01-07T05:36:33.419Z,99847.50
2023-01-07T05:39:02.791Z,99853.78
2023-01-07T05:41:30.305Z,99853.78
2023-01-07T05:43:58.454Z,99852.97
2023-01-07T05:46:25.935Z,99853.00
2023-01-07T05:48:55.812Z,99854.72
2023-01-07T05:51:23.223Z,99855.69
2023-01-07T05:53:50.865Z,99850.53
2023-01-07T05:56:23.158Z,99854.00
2023-01-07T05:58:54.944Z,99851.47
2023-01-07T06:01:22.902Z,99862.75
2023-01-07T06:03:51.456Z,99867.12
2023-01-07T06:06:18.676Z,99861.94
2023-01-07T06:08:45.841Z,99853.19
2023-01-07T06:11:15.535Z,99860.22
2023-01-07T06:13:44.200Z,99861.94
2023-01-07T06:16:13.991Z,99854.13
2023-01-07T06:18:42.024Z,99849.88
2023-01-07T06:21:09.211Z,99859.44
2023-01-07T06:23:37.402Z,99854.22
2023-01-07T06:26:04.986Z,99855.09
2023-01-07T06:28:33.187Z,99868.97
2023-01-07T06:31:00.954Z,99853.34
2023-01-07T06:33:33.340Z,99854.97
2023-01-07T06:36:00.763Z,99850.59
2023-01-07T06:38:27.848Z,99854.09
2023-01-07T06:40:55.597Z,99853.06
2023-01-07T06:43:22.822Z,99843.53
2023-01-07T06:45:50.092Z,99840.00
2023-01-07T06:48:20.629Z,99831.25
2023-01-07T06:50:48.876Z,99832.97
2023-01-07T06:53:19.911Z,99833.63
2023-01-07T06:55:49.520Z,99836.16
2023-01-07T06:58:17.498Z,99840.75
2023-01-07T07:00:45.171Z,99850.25
2023-01-07T07:03:12.560Z,99855.47
2023-01-07T07:05:42.956Z,99852.00
2023-01-07T07:08:13.050Z,99856.28
2023-01-07T07:10:41.502Z,99851.75
2023-01-07T07:13:09.731Z,99855.81
2023-01-07T07:15:37.595Z,99856.50
2023-01-07T07:18:05.758Z,99865.91
2023-01-07T07:20:34.837Z,99858.78
2023-01-07T07:23:03.231Z,99859.31
2023-01-07T07:25:32.449Z,99865.16
2023-01-07T07:28:00.969Z,99864.84
2023-01-07T07:30:47.309Z,99864.63
2023-01-07T07:33:19.347Z,99865.16
2023-01-07T07:35:48.895Z,99870.97
2023-01-07T07:38:17.862Z,99866.41
2023-01-07T07:40:46.908Z,99866.94
2023-01-07T07:43:19.430Z,99867.62
2023-01-07T07:45:47.706Z,99867.28
2023-01-07T07:48:16.445Z,99862.66
2023-01-07T07:50:48.359Z,99863.25
2023-01-07T07:53:19.304Z,99862.25
2023-01-07T07:55:48.044Z,99865.22
2023-01-07T07:58:21.729Z,99869.84
2023-01-07T08:00:50.565Z,99865.03
2023-01-07T08:03:24.048Z,99872.13
2023-01-07T08:05:52.275Z,99868.28
2023-01-07T08:08:32.536Z,99860.53
2023-01-07T08:11:00.910Z,99864.19
2023-01-07T08:13:32.948Z,99862.91
2023-01-07T08:16:02.448Z,99869.38
2023-01-07T08:18:30.764Z,99869.78
2023-01-07T08:21:00.055Z,99865.41
2023-01-07T08:23:31.541Z,99862.78
2023-01-07T08:26:03.622Z,99862.50
2023-01-07T08:28:38.249Z,99855.28
2023-01-07T08:31:08.067Z,99863.25
2023-01-07T08:33:39.183Z,99858.88
2023-01-07T08:36:22.095Z,99860.59
2023-01-07T08:38:56.772Z,99867.81
2023-01-07T08:41:26.137Z,99865.59
2023-01-07T08:43:54.787Z,99868.78
2023-01-07T08:46:22.767Z,99874.16
2023-01-07T08:48:51.616Z,99867.81
2023-01-07T08:51:20.395Z,99867.69
2023-01-07T08:53:49.920Z,99863.22
2023-01-07T08:56:20.392Z,99848.25
2023-01-07T08:58:48.937Z,99852.47
2023-01-07T09:01:25.576Z,99850.47
2023-01-07T09:03:55.332Z,99853.56
2023-01-07T09:06:25.311Z,99854.63
2023-01-07T09:08:54.839Z,99858.63
2023-01-07T09:11:22.636Z,99851.97
2023-01-07T09:13:52.319Z,99857.22
2023-01-07T09:16:19.943Z,99843.59
2023-01-07T09:18:49.170Z,99852.91
2023-01-07T09:21:18.971Z,99849.47
2023-01-07T09:23:46.961Z,99853.38
2023-01-07T09:26:16.259Z,99842.72
2023-01-07T09:28:43.458Z,99852.03
2023-01-07T09:31:12.792Z,99845.62
2023-01-07T09:33:44.442Z,99840.91
2023-01-07T09:36:11.778Z,99845.12
2023-01-07T09:38:41.499Z,99834.19
2023-01-07T09:41:40.795Z,99832.91
2023-01-07T09:44:22.640Z,99826.81
2023-01-07T09:46:53.602Z,99822.75
2023-01-07T09:49:32.352Z,99823.28
2023-01-07T09:52:08.680Z,99823.63
2023-01-07T09:54:39.917Z,99818.13
2023-01-07T09:57:16.404Z,99813.50
2023-01-07T09:59:48.779Z,99809.78
2023-01-07T10:02:33.317Z,99806.88
2023-01-07T10:05:21.696Z,99806.06
2023-01-07T10:08:30.509Z,99798.59
2023-01-07T10:11:10.126Z,99790.53
2023-01-07T10:13:42.933Z,99792.66
2023-01-07T10:16:40.078Z,99794.25
2023-01-07T10:19:24.018Z,99786.47
2023-01-07T10:22:16.524Z,99790.97
2023-01-07T10:24:53.104Z,99789.69
2023-01-07T10:27:32.973Z,99791.38
2023-01-07T10:30:11.880Z,99792.03
2023-01-07T10:32:41.999Z,99781.44
2023-01-07T10:35:19.339Z,99781.59
2023-01-07T10:37:49.239Z,99776.31
2023-01-07T10:40:36.079Z,99773.44
2023-01-07T10:43:41.241Z,99774.66
2023-01-07T10:46:27.158Z,99772.91
2023-01-07T10:49:25.533Z,99775.31
2023-01-07T10:52:44.036Z,99766.38
2023-01-07T10:55:30.844Z,99764.13
2023-01-07T10:58:00.605Z,99756.78
2023-01-07T11:00:28.824Z,99758.25
2023-01-07T11:03:00.052Z,99757.94
2023-01-07T11:05:37.898Z,99754.50
2023-01-07T11:08:27.305Z,99752.97
2023-01-07T11:10:55.012Z,99750.22
2023-01-07T11:13:54.957Z,99740.84
2023-01-07T11:16:29.852Z,99741.75
2023-01-07T11:19:09.172Z,99736.16
2023-01-07T11:21:45.974Z,99729.53
2023-01-07T11:24:31.970Z,99736.38
2023-01-07T11:27:12.115Z,99736.47
2023-01-07T11:29:55.560Z,99727.25
2023-01-07T11:32:28.088Z,99720.25
2023-01-07T11:35:15.694Z,99720.25
2023-01-07T11:37:46.760Z,99727.09
2023-01-07T11:40:24.867Z,99721.47
2023-01-07T11:43:05.153Z,99721.81
2023-01-07T11:45:37.439Z,99712.75
2023-01-07T11:48:20.288Z,99713.00
2023-01-07T11:50:56.617Z,99716.41
2023-01-07T11:53:41.916Z,99697.88
2023-01-07T11:56:29.987Z,99705.25
2023-01-07T11:59:16.727Z,99692.56
2023-01-07T12:01:47.876Z,99692.72
2023-01-07T12:04:25.836Z,99695.13
2023-01-07T12:07:13.886Z,99692.50
2023-01-07T12:09:44.594Z,99692.50
2023-01-07T12:12:37.444Z,99679.09
2023-01-07T12:15:29.865Z,99673.19
2023-01-07T12:18:07.443Z,99680.03
2023-01-07T12:21:32.611Z,99676.00
2023-01-07T12:24:09.850Z,99676.69
2023-01-07T12:27:00.694Z,99668.00
2023-01-07T12:29:36.330Z,99661.22
2023-01-07T12:32:34.443Z,99663.88
2023-01-07T12:35:28.951Z,99662.78
2023-01-07T12:38:22.206Z,99661.41
2023-01-07T12:41:05.619Z,99661.97
2023-01-07T12:43:46.354Z,99655.84
2023-01-07T12:46:19.133Z,99657.00
2023-01-07T12:49:11.887Z,99650.34
2023-01-07T12:52:04.219Z,99645.22
2023-01-07T12:55:03.000Z,99648.53
2023-01-07T12:57:36.848Z,99642.09
2023-01-07T13:00:26.718Z,99646.31
2023-01-07T13:03:26.250Z,99651.59
2023-01-07T13:06:49.337Z,99643.19
2023-01-07T13:09:35.733Z,99644.03
2023-01-07T13:13:03.711Z,99642.34
2023-01-07T13:15:41.266Z,99637.31
2023-01-07T13:18:17.708Z,99642.81
2023-01-07T13:21:08.069Z,99641.66
2023-01-07T13:24:00.212Z,99644.06
2023-01-07T13:26:44.858Z,99638.25
2023-01-07T13:29:41.103Z,99637.47
2023-01-07T13:32:33.033Z,99638.09
2023-01-07T13:35:16.638Z,99637.56
2023-01-07T13:37:51.902Z,99636.56
2023-01-07T13:41:02.375Z,99639.56
2023-01-07T13:43:49.127Z,99638.56
2023-01-07T13:46:30.759Z,99637.25
2023-01-07T13:49:01.432Z,99633.13
2023-01-07T13:51:37.387Z,99626.22
2023-01-07T13:54:11.692Z,99635.06
2023-01-07T13:56:40.336Z,99633.13
2023-01-07T13:59:33.399Z,99633.50
2023-01-07T14:02:20.323Z,99636.78
2023-01-07T14:05:22.491Z,99636.47
2023-01-07T14:07:54.652Z,99641.25
2023-01-07T14:10:31.195Z,99638.47
2023-01-07T14:13:39.234Z,99633.66
2023-01-07T14:16:29.523Z,99643.13
2023-01-07T14:19:34.265Z,99643.56
2023-01-07T14:22:44.038Z,99644.53
2023-01-07T14:25:47.003Z,99636.03
2023-01-07T14:28:49.537Z,99631.69
2023-01-07T14:31:26.189Z,99639.19
2023-01-07T14:34:07.016Z,99625.00
2023-01-07T14:37:15.472Z,99630.53
2023-01-07T14:39:49.707Z,99626.81
2023-01-07T14:42:51.131Z,99634.47
2023-01-07T14:45:44.516Z,99630.59
2023-01-07T14:48:18.050Z,99629.28
2023-01-07T14:50:53.541Z,99625.34
2023-01-07T14:54:20.277Z,99632.88
2023-01-07T14:57:26.073Z,99626.44
2023-01-07T15:00:41.262Z,99628.84
2023-01-07T15:03:40.660Z,99623.34
2023-01-07T15:06:35.884Z,99634.41
2023-01-07T15:09:36.623Z,99626.87
2023-01-07T15:12:31.123Z,99627.66
2023-01-07T15:15:20.847Z,99631.12
2023-01-07T15:17:51.269Z,99620.41
2023-01-07T15:20:19.560Z,99632.72
2023-01-07T15:23:20.283Z,99621.50
2023-01-07T15:26:28.210Z,99622.00
2023-01-07T15:29:37.143Z,99616.12
2023-01-07T15:32:34.870Z,99613.41
2023-01-07T15:35:20.892Z,99614.47
2023-01-07T15:37:53.596Z,99630.66
2023-01-07T15:40:27.069Z,99624.38
2023-01-07T15:42:58.882Z,99632.69
2023-01-07T15:45:30.205Z,99628.53
2023-01-07T15:48:10.769Z,99631.78
2023-01-07T15:50:46.093Z,99633.16
2023-01-07T15:53:13.621Z,99631.78
2023-01-07T15:56:10.379Z,99639.34
2023-01-07T15:58:48.981Z,99641.44
2023-01-07T16:01:23.451Z,99631.78
2023-01-07T16:03:55.993Z,99636.91
2023-01-07T16:06:31.313Z,99645.25
2023-01-07T16:09:16.458Z,99639.12
2023-01-07T16:11:45.428Z,99638.62
2023-01-07T16:14:22.474Z,99645.94
2023-01-07T16:17:08.624Z,99637.78
2023-01-07T16:19:36.410Z,99641.50
2023-01-07T16:22:16.509Z,99642.50
2023-01-07T16:24:55.412Z,99640.53
2023-01-07T16:27:30.975Z,99642.87
2023-01-07T16:30:02.217Z,99639.41
2023-01-07T16:32:32.971Z,99640.63
2023-01-07T16:35:14.511Z,99635.63
2023-01-07T16:37:43.013Z,99637.41
2023-01-07T16:40:25.826Z,99634.03
2023-01-07T16:42:55.741Z,99639.91
2023-01-07T16:45:41.154Z,99638.34
2023-01-07T16:48:23.466Z,99631.28
2023-01-07T16:50:55.835Z,99635.81
2023-01-07T16:53:35.567Z,99637.03
2023-01-07T16:56:16.208Z,99638.03
2023-01-07T16:58:56.171Z,99636.53
2023-01-07T17:01:34.149Z,99637.78
2023-01-07T17:04:09.094Z,99635.06
2023-01-07T17:06:41.080Z,99634.34
2023-01-07T17:09:37.586Z,99632.63
2023-01-07T17:12:05.649Z,99625.84
2023-01-07T17:14:48.512Z,99627.53
2023-01-07T17:17:31.990Z,99634.25
2023-01-07T17:20:14.030Z,99631.00
2023-01-07T17:22:43.677Z,99636.91
2023-01-07T17:25:27.103Z,99643.91
2023-01-07T17:27:58.665Z,99645.97
2023-01-07T17:30:34.083Z,99642.44
2023-01-07T17:33:03.910Z,99648.72
2023-01-07T17:35:38.424Z,99646.28
2023-01-07T17:38:16.453Z,99647.78
2023-01-07T17:40:47.485Z,99651.63
2023-01-07T17:43:37.690Z,99645.84
2023-01-07T17:46:07.702Z,99650.22
2023-01-07T17:48:38.719Z,99651.97
2023-01-07T17:51:11.631Z,99647.84
2023-01-07T17:53:49.183Z,99655.47
2023-01-07T17:56:21.986Z,99648.50
2023-01-07T17:58:52.264Z,99655.09
2023-01-07T18:01:24.330Z,99656.22
2023-01-07T18:03:53.671Z,99655.94
2023-01-07T18:06:24.669Z,99656.03
2023-01-07T18:08:53.492Z,99654.19
2023-01-07T18:11:44.294Z,99658.66
2023-01-07T18:14:15.833Z,99652.69
2023-01-07T18:16:43.725Z,99653.75
2023-01-07T18:19:15.904Z,99660.88
2023-01-07T18:21:48.017Z,99660.78
2023-01-07T18:24:25.178Z,99664.34
2023-01-07T18:26:55.661Z,99664.13
2023-01-07T18:29:24.973Z,99667.78
2023-01-07T18:31:55.447Z,99659.75
2023-01-07T18:34:23.411Z,99655.38
2023-01-07T18:36:54.421Z,99656.41
2023-01-07T18:39:24.844Z,99656.91
2023-01-07T18:41:54.242Z,99655.19
2023-01-07T18:44:27.093Z,99663.22
2023-01-07T18:46:55.038Z,99665.69
2023-01-07T18:49:32.352Z,99663.81
2023-01-07T18:52:02.756Z,99665.69
2023-01-07T18:54:32.866Z,99666.56
2023-01-07T18:57:01.479Z,99667.56
2023-01-07T18:59:33.161Z,99666.84
2023-01-07T19:02:04.154Z,99663.25
2023-01-07T19:04:39.842Z,99659.59
2023-01-07T19:07:08.387Z,99656.91
2023-01-07T19:09:38.062Z,99657.81
2023-01-07T19:12:08.946Z,99658.84
2023-01-07T19:14:41.538Z,99656.13
2023-01-07T19:17:09.764Z,99653.50
2023-01-07T19:19:47.901Z,99648.28
2023-01-07T19:22:18.619Z,99655.38
2023-01-07T19:24:48.094Z,99648.22
2023-01-07T19:27:19.194Z,99658.00
2023-01-07T19:29:53.720Z,99646.59
2023-01-07T19:32:21.643Z,99640.53
2023-01-07T19:34:52.321Z,99651.66
2023-01-07T19:37:22.012Z,99642.00
2023-01-07T19:39:52.074Z,99650.13
2023-01-07T19:42:23.161Z,99643.28
2023-01-07T19:44:52.917Z,99646.78
2023-01-07T19:47:20.984Z,99649.47
2023-01-07T19:49:50.416Z,99646.00
2023-01-07T19:52:19.497Z,99646.00
2023-01-07T19:54:47.065Z,99646.00
2023-01-07T19:57:18.125Z,99642.63
2023-01-07T19:59:46.591Z,99645.25
2023-01-07T20:02:14.673Z,99640.50
2023-01-07T20:04:45.338Z,99649.38
2023-01-07T20:07:14.676Z,99637.06
2023-01-07T20:09:43.361Z,99638.91
2023-01-07T20:12:11.474Z,99639.81
2023-01-07T20:14:38.809Z,99633.47
2023-01-07T20:17:10.033Z,99634.53
2023-01-07T20:19:40.822Z,99636.03
2023-01-07T20:22:13.081Z,99630.09
2023-01-07T20:24:44.242Z,99630.03
2023-01-07T20:27:11.983Z,99624.91
2023-01-07T20:29:40.752Z,99617.81
2023-01-07T20:32:12.292Z,99623.09
2023-01-07T20:34:39.786Z,99610.94
2023-01-07T20:37:09.273Z,99616.00
2023-01-07T20:39:36.698Z,99611.59
2023-01-07T20:42:07.285Z,99610.94
2023-01-07T20:44:37.665Z,99607.47
2023-01-07T20:47:07.281Z,99604.72
2023-01-07T20:49:34.628Z,99604.00
2023-01-07T20:52:02.115Z,99606.56
2023-01-07T20:54:32.192Z,99611.91
2023-01-07T20:56:59.853Z,99608.47
2023-01-07T20:59:28.467Z,99607.44
2023-01-07T21:01:57.115Z,99613.66
2023-01-07T21:04:24.583Z,99614.63
2023-01-07T21:06:53.187Z,99618.03
2023-01-07T21:09:21.011Z,99618.75
2023-01-07T21:11:52.442Z,99618.78
2023-01-07T21:14:19.745Z,99627.34
2023-01-07T21:16:50.076Z,99615.09
2023-01-07T21:19:17.693Z,99620.28
2023-01-07T21:21:47.142Z,99613.44
2023-01-07T21:24:17.034Z,99617.75
2023-01-07T21:26:48.999Z,99612.34
2023-01-07T21:29:16.549Z,99614.09
2023-01-07T21:31:47.039Z,99609.56
2023-01-07T21:34:15.914Z,99602.97
2023-01-07T21:36:43.596Z,99605.66
2023-01-07T21:39:12.315Z,99603.22
2023-01-07T21:41:41.153Z,99600.59
2023-01-07T21:44:11.105Z,99601.22
2023-01-07T21:46:41.254Z,99601.22
2023-01-07T21:49:12.611Z,99607.25
2023-01-07T21:51:40.689Z,99592.22
2023-01-07T21:54:09.236Z,99595.88
2023-01-07T21:56:37.209Z,99588.75
2023-01-07T21:59:08.404Z,99595.03
2023-01-07T22:01:37.207Z,99594.94
2023-01-07T22:04:15.888Z,99591.97
2023-01-07T22:06:45.228Z,99592.59
2023-01-07T22:09:16.767Z,99587.69
2023-01-07T22:11:45.193Z,99584.00
2023-01-07T22:14:17.972Z,99585.97
2023-01-07T22:16:48.829Z,99580.81
2023-01-07T22:19:29.079Z,99579.78
2023-01-07T22:21:58.010Z,99570.09
2023-01-07T22:24:28.179Z,99572.72
2023-01-07T22:26:55.466Z,99563.09
2023-01-07T22:29:24.154Z,99568.59
2023-01-07T22:31:54.065Z,99565.72
2023-01-07T22:34:21.720Z,99562.34
2023-01-07T22:37:06.556Z,99564.03
2023-01-07T22:39:45.535Z,99558.81
2023-01-07T22:42:21.134Z,99561.41
2023-01-07T22:44:58.662Z,99549.94
2023-01-07T22:47:33.984Z,99550.69
2023-01-07T22:50:04.111Z,99550.59
2023-01-07T22:52:31.559Z,99548.97
2023-01-07T22:55:00.242Z,99547.28
2023-01-07T22:57:29.760Z,99549.91
2023-01-07T22:59:59.054Z,99544.00
2023-01-07T23:02:31.487Z,99552.63
2023-01-07T23:05:01.635Z,99548.28
2023-01-07T23:07:32.008Z,99542.06
2023-01-07T23:09:59.196Z,99541.06
2023-01-07T23:12:28.004Z,99538.50
2023-01-07T23:14:57.011Z,99538.94
2023-01-07T23:17:24.194Z,99526.66
2023-01-07T23:19:53.832Z,99524.12
2023-01-07T23:22:21.586Z,99525.00
2023-01-07T23:24:49.055Z,99531.25
2023-01-07T23:27:16.344Z,99520.03
2023-01-07T23:29:44.268Z,99524.12
2023-01-07T23:32:12.747Z,99520.78
2023-01-07T23:34:42.520Z,99517.25
2023-01-07T23:37:10.144Z,99522.00
2023-01-07T23:39:37.335Z,99523.38
2023-01-07T23:42:12.370Z,99528.09
2023-01-07T23:44:40.948Z,99517.62
2023-01-07T23:47:09.538Z,99514.78
2023-01-07T23:49:37.938Z,99518.06
2023-01-07T23:52:07.422Z,99512.81
2023-01-07T23:54:36.538Z,99508.50
2023-01-07T23:57:05.690Z,99517.12
2023-01-07T23:59:37.872Z,99501.22
